Time;durP1;ratioP1;P1;durP2;ratioP2;P2;SDS_P1;SDS_P2;PMS_P1;PMS_P2;Temp;Humidity;BMP_temperature;BMP_pressure;BME280_temperature;BME280_humidity;BME280_pressure;Samples;Min_cycle;Max_cycle;Signal;HPM_P1;HPM_P2
2023/05/28 00:03:04;;;;;;;12.03;6.77;;;21.30;58.60;;;;;;8477194;27;20495;-47
2023/05/28 00:07:05;;;;;;;10.82;4.75;;;21.30;58.70;;;;;;8456747;27;20805;-45
2023/05/28 00:11:05;;;;;;;8.32;4.35;;;21.30;58.60;;;;;;8476936;27;20024;-45
2023/05/28 00:15:07;;;;;;;16.60;5.22;;;21.30;58.60;;;;;;8476657;27;20095;-44
2023/05/28 00:19:09;;;;;;;9.50;4.40;;;21.30;58.70;;;;;;8458087;27;20464;-44
2023/05/28 00:23:09;;;;;;;21.80;5.32;;;21.30;58.40;;;;;;8474577;27;20377;-44
2023/05/28 00:27:10;;;;;;;14.98;5.35;;;21.30;58.50;;;;;;8474074;27;20102;-43
2023/05/28 00:31:11;;;;;;;10.20;4.50;;;21.30;59.10;;;;;;8475421;27;20038;-44
2023/05/28 00:35:12;;;;;;;8.32;4.22;;;21.30;58.40;;;;;;8475923;27;20030;-43
2023/05/28 00:39:18;;;;;;;9.95;5.40;;;21.20;58.20;;;;;;8493129;27;20038;-44
2023/05/28 00:43:19;;;;;;;9.02;5.43;;;21.00;57.60;;;;;;8495733;27;20038;-42
2023/05/28 00:47:20;;;;;;;;;;;21.00;57.10;;;;;;8477361;27;20034;-43
2023/05/28 00:51:20;;;;;;;9.53;6.23;;;20.80;55.80;;;;;;8495338;27;19908;-43
2023/05/28 00:55:22;;;;;;;13.68;6.40;;;20.80;56.20;;;;;;8444320;27;20054;-43
2023/05/28 00:59:25;;;;;;;10.43;5.85;;;20.80;55.80;;;;;;8460314;28;20043;-43
2023/05/28 01:03:26;;;;;;;21.73;6.97;;;20.80;55.40;;;;;;8460738;28;20110;-43
2023/05/28 01:07:27;;;;;;;14.30;6.35;;;20.80;55.30;;;;;;8460691;28;20039;-42
2023/05/28 01:11:28;;;;;;;11.80;6.15;;;20.80;55.00;;;;;;8460511;28;20035;-43
2023/05/28 01:15:29;;;;;;;9.52;6.13;;;20.90;54.80;;;;;;8460456;28;20034;-43
2023/05/28 01:19:31;;;;;;;13.10;6.43;;;20.70;54.30;;;;;;8460556;28;20055;-45
2023/05/28 01:23:48;;;;;;;10.32;6.13;;;20.70;53.90;;;;;;8445565;28;20031;-44
2023/05/28 01:27:49;;;;;;;11.13;5.75;;;20.70;53.30;;;;;;8426541;28;20071;-44
2023/05/28 01:31:49;;;;;;;12.45;5.65;;;20.60;54.20;;;;;;8415062;28;20023;-45
2023/05/28 01:35:54;;;;;;;11.05;6.00;;;20.60;53.70;;;;;;8460264;28;20028;-44
2023/05/28 01:39:56;;;;;;;10.80;5.90;;;20.70;53.50;;;;;;8460031;28;20023;-44
2023/05/28 01:43:59;;;;;;;15.07;6.30;;;20.80;53.50;;;;;;8460039;28;20525;-43
2023/05/28 01:48:00;;;;;;;10.98;6.03;;;20.80;53.60;;;;;;8459644;28;20028;-43
2023/05/28 01:52:03;;;;;;;11.75;5.97;;;20.80;53.70;;;;;;8458107;28;20030;-43
2023/05/28 01:56:04;;;;;;;7.68;5.88;;;20.80;53.80;;;;;;8426082;28;20028;-44
2023/05/28 02:00:06;;;;;;;7.43;5.30;;;20.80;53.90;;;;;;8426148;28;20029;-43
2023/05/28 02:04:06;;;;;;;9.27;5.78;;;20.80;54.00;;;;;;8425926;28;20105;-43
2023/05/28 02:08:07;;;;;;;11.00;5.07;;;20.80;54.10;;;;;;8425870;28;20035;-43
2023/05/28 02:12:07;;;;;;;8.27;5.37;;;20.80;54.20;;;;;;8425875;28;20335;-44
2023/05/28 02:16:10;;;;;;;8.93;5.23;;;20.80;54.20;;;;;;8425986;28;20331;-44
2023/05/28 02:20:11;;;;;;;10.60;6.00;;;20.80;54.30;;;;;;8425707;28;20349;-43
2023/05/28 02:24:12;;;;;;;13.43;5.20;;;20.80;54.30;;;;;;8408182;28;20054;-43
2023/05/28 02:28:13;;;;;;;8.73;5.88;;;20.80;54.40;;;;;;8431035;28;20114;-44
2023/05/28 02:32:13;;;;;;;8.13;5.27;;;20.80;54.40;;;;;;8442147;28;20023;-44
2023/05/28 02:36:14;;;;;;;9.15;5.80;;;20.80;54.60;;;;;;8447257;28;20281;-44
2023/05/28 02:40:15;;;;;;;6.72;4.88;;;20.80;54.60;;;;;;8465632;28;20031;-44
2023/05/28 02:44:16;;;;;;;10.40;5.60;;;20.80;54.70;;;;;;8465478;28;20031;-42
2023/05/28 02:48:16;;;;;;;8.68;5.05;;;20.80;54.70;;;;;;8447160;28;20027;-44
2023/05/28 02:52:17;;;;;;;10.10;5.22;;;20.80;54.80;;;;;;8461014;28;20061;-44
2023/05/28 02:56:18;;;;;;;8.07;5.22;;;20.70;54.80;;;;;;8431431;28;20485;-43
2023/05/28 03:00:19;;;;;;;12.02;6.32;;;20.70;54.90;;;;;;8431399;28;20537;-44
2023/05/28 03:04:20;;;;;;;9.60;5.32;;;20.80;55.00;;;;;;8421016;28;20567;-44
2023/05/28 03:08:21;;;;;;;7.05;4.93;;;20.80;55.00;;;;;;8397469;28;20488;-43
2023/05/28 03:12:22;;;;;;;7.30;5.22;;;20.70;54.90;;;;;;8379674;28;20116;-44
2023/05/28 03:16:24;;;;;;;8.15;4.47;;;20.80;55.00;;;;;;8397565;28;20036;-43
2023/05/28 03:20:25;;;;;;;7.43;4.78;;;20.70;55.00;;;;;;8397300;28;20028;-43
2023/05/28 03:24:26;;;;;;;8.43;4.80;;;20.70;55.60;;;;;;8397412;28;20042;-42
2023/05/28 03:28:26;;;;;;;7.27;4.77;;;20.80;55.10;;;;;;8396842;28;20044;-43
2023/05/28 03:32:27;;;;;;;8.00;4.78;;;20.80;55.00;;;;;;8408429;28;20284;-43
2023/05/28 03:36:29;;;;;;;6.63;4.40;;;20.80;55.20;;;;;;8430224;28;20032;-44
2023/05/28 03:40:29;;;;;;;;;;;20.70;55.20;;;;;;8429421;28;20082;-44
2023/05/28 03:44:30;;;;;;;5.47;4.47;;;20.70;55.20;;;;;;8429870;28;19904;-43
2023/05/28 03:48:30;;;;;;;6.82;4.35;;;20.70;55.30;;;;;;8429612;28;20111;-43
2023/05/28 03:52:31;;;;;;;6.10;4.33;;;20.80;55.30;;;;;;8423445;28;20027;-43
2023/05/28 03:56:33;;;;;;;8.68;4.95;;;20.80;55.20;;;;;;8395935;28;20286;-42
2023/05/28 04:00:34;;;;;;;6.22;4.90;;;20.70;55.80;;;;;;8395811;28;20028;-44
2023/05/28 04:04:34;;;;;;;6.10;4.55;;;20.70;55.30;;;;;;8407426;28;20048;-44
2023/05/28 04:08:35;;;;;;;7.00;4.70;;;20.70;55.30;;;;;;8429123;28;20038;-44
2023/05/28 04:12:36;;;;;;;5.55;4.07;;;20.70;55.40;;;;;;8429017;28;20089;-43
2023/05/28 04:16:37;;;;;;;5.47;4.15;;;20.80;55.30;;;;;;8428911;28;20054;-43
2023/05/28 04:20:37;;;;;;;7.32;5.03;;;20.80;55.20;;;;;;8429235;28;20153;-43
2023/05/28 04:24:38;;;;;;;5.65;4.10;;;20.90;55.00;;;;;;8429090;28;20071;-43
2023/05/28 04:28:40;;;;;;;7.15;4.43;;;20.90;55.00;;;;;;8428060;28;20700;-43
2023/05/28 04:32:41;;;;;;;5.45;4.10;;;20.90;55.50;;;;;;8442261;28;20174;-43
2023/05/28 04:36:42;;;;;;;6.17;4.07;;;21.00;55.00;;;;;;8462241;28;20027;-43
2023/05/28 04:40:43;;;;;;;7.95;4.47;;;20.90;55.00;;;;;;8461953;28;20289;-43
2023/05/28 04:44:44;;;;;;;7.00;4.47;;;20.90;54.90;;;;;;8461866;28;20024;-44
2023/05/28 04:48:45;;;;;;;;;;;20.90;54.90;;;;;;8462175;28;20107;-43
2023/05/28 04:52:45;;;;;;;5.27;3.83;;;21.00;55.00;;;;;;8452997;28;19903;-44
2023/05/28 04:56:46;;;;;;;6.20;4.07;;;21.00;55.00;;;;;;8427782;28;20032;-44
2023/05/28 05:00:47;;;;;;;6.75;4.03;;;21.00;55.00;;;;;;8427496;28;20286;-44
2023/05/28 05:04:48;;;;;;;5.38;4.00;;;20.90;55.00;;;;;;8409013;28;20052;-44
2023/05/28 05:08:48;;;;;;;6.23;3.93;;;20.90;55.00;;;;;;8427527;28;20031;-44
2023/05/28 05:12:49;;;;;;;5.00;3.53;;;20.90;54.90;;;;;;8427129;28;20031;-44
2023/05/28 05:16:50;;;;;;;6.00;4.00;;;21.00;55.00;;;;;;8427064;28;20028;-44
2023/05/28 05:20:50;;;;;;;6.68;3.95;;;20.90;55.00;;;;;;8427299;28;20039;-43
2023/05/28 05:24:51;;;;;;;6.43;3.80;;;20.90;55.00;;;;;;8426838;28;20026;-43
2023/05/28 05:28:52;;;;;;;5.15;3.60;;;20.90;55.10;;;;;;8426750;28;20054;-43
2023/05/28 05:32:52;;;;;;;7.13;3.92;;;20.90;55.00;;;;;;8441990;28;20046;-43
2023/05/28 05:36:53;;;;;;;5.63;3.70;;;20.90;55.10;;;;;;8460125;28;20084;-43
2023/05/28 05:40:54;;;;;;;5.30;3.83;;;20.90;55.10;;;;;;8460455;28;20300;-43
2023/05/28 05:44:54;;;;;;;4.63;3.70;;;20.90;55.20;;;;;;8460095;28;20081;-43
2023/05/28 05:48:55;;;;;;;3.67;3.10;;;20.90;55.30;;;;;;8459851;28;20043;-43
2023/05/28 05:52:55;;;;;;;5.93;3.38;;;20.90;55.30;;;;;;8450505;28;20028;-44
2023/05/28 05:56:56;;;;;;;5.80;3.67;;;20.80;55.40;;;;;;8426032;28;20021;-42
2023/05/28 06:00:57;;;;;;;4.15;3.75;;;20.80;55.40;;;;;;8426218;28;20439;-43
2023/05/28 06:04:57;;;;;;;5.03;3.93;;;20.80;55.40;;;;;;8430015;28;20520;-43
2023/05/28 06:08:58;;;;;;;4.97;3.63;;;20.80;55.40;;;;;;8432561;28;20822;-43
2023/05/28 06:13:02;;;;;;;6.07;4.47;;;20.80;55.30;;;;;;8432750;28;20024;-43
2023/05/28 06:17:03;;;;;;;4.85;3.47;;;20.80;55.30;;;;;;8432467;28;20024;-43
2023/05/28 06:21:03;;;;;;;5.90;3.92;;;20.80;55.30;;;;;;8432301;28;20028;-43
2023/05/28 06:25:06;;;;;;;4.72;4.15;;;20.80;55.40;;;;;;8432328;28;20029;-43
2023/05/28 06:29:09;;;;;;;4.90;3.72;;;20.90;55.40;;;;;;8432038;28;20020;-43
2023/05/28 06:33:10;;;;;;;4.75;3.42;;;20.80;55.40;;;;;;8449711;28;20373;-43
2023/05/28 06:37:11;;;;;;;5.80;3.90;;;20.80;55.40;;;;;;8447361;28;20059;-43
2023/05/28 06:41:12;;;;;;;5.00;3.47;;;20.90;55.40;;;;;;8465634;28;20559;-44
2023/05/28 06:45:13;;;;;;;3.50;3.17;;;20.90;55.20;;;;;;8465385;28;20366;-43
2023/05/28 06:49:14;;;;;;;4.35;3.42;;;20.90;55.20;;;;;;8465058;28;20316;-42
2023/05/28 06:53:15;;;;;;;4.07;3.10;;;21.00;55.30;;;;;;8452776;28;20554;-43
2023/05/28 06:57:15;;;;;;;4.72;3.53;;;20.90;55.20;;;;;;8431078;28;20766;-43
2023/05/28 07:01:16;;;;;;;4.85;3.35;;;21.00;55.10;;;;;;8430716;28;20028;-43
2023/05/28 07:05:18;;;;;;;5.22;3.47;;;21.00;55.10;;;;;;8431073;28;20052;-43
2023/05/28 07:09:18;;;;;;;5.05;3.42;;;21.00;55.00;;;;;;8430758;28;20393;-43
2023/05/28 07:13:19;;;;;;;5.18;3.35;;;21.00;55.10;;;;;;8430809;28;20020;-43
2023/05/28 07:17:20;;;;;;;3.33;2.80;;;21.00;55.60;;;;;;8430485;28;20474;-43
2023/05/28 07:21:21;;;;;;;4.35;3.35;;;20.90;55.20;;;;;;8430493;28;20429;-43
2023/05/28 07:25:22;;;;;;;4.20;3.20;;;20.90;55.30;;;;;;8430596;28;20032;-43
2023/05/28 07:29:23;;;;;;;4.30;2.83;;;20.90;55.30;;;;;;8430197;28;20066;-43
2023/05/28 07:33:24;;;;;;;4.03;3.10;;;20.90;55.30;;;;;;8449673;28;20027;-44
2023/05/28 07:37:25;;;;;;;3.95;3.20;;;20.90;55.30;;;;;;8463974;28;20040;-43
2023/05/28 07:41:25;;;;;;;;;;;20.90;55.30;;;;;;8464128;28;20369;-43
2023/05/28 07:45:26;;;;;;;5.10;3.30;;;20.90;55.30;;;;;;8463569;28;19903;-43
2023/05/28 07:49:27;;;;;;;3.50;2.80;;;20.90;55.40;;;;;;8463362;28;20028;-43
2023/05/28 07:53:28;;;;;;;3.33;2.88;;;20.90;55.50;;;;;;8449134;28;20073;-44
2023/05/28 07:57:29;;;;;;;3.58;3.10;;;20.90;55.50;;;;;;8429435;28;20028;-43
2023/05/28 08:01:29;;;;;;;;;;;20.90;55.40;;;;;;8429524;28;20558;-44
2023/05/28 08:05:30;;;;;;;4.23;2.90;;;20.90;55.20;;;;;;8409687;28;20290;-43
2023/05/28 08:09:31;;;;;;;3.58;3.20;;;21.00;55.10;;;;;;8395705;28;20029;-42
2023/05/28 08:13:31;;;;;;;3.90;2.78;;;21.00;55.20;;;;;;8395261;28;20032;-43
2023/05/28 08:17:32;;;;;;;4.50;3.20;;;21.00;55.20;;;;;;8377265;28;20111;-43
2023/05/28 08:21:33;;;;;;;4.22;3.13;;;21.00;55.20;;;;;;8395193;28;20078;-43
2023/05/28 08:25:33;;;;;;;3.67;2.60;;;21.00;55.10;;;;;;8394614;28;20024;-43
2023/05/28 08:29:34;;;;;;;3.92;3.00;;;21.00;55.20;;;;;;8394553;28;20103;-43
2023/05/28 08:33:35;;;;;;;3.97;2.80;;;21.00;55.10;;;;;;8416069;28;20024;-43
2023/05/28 08:37:36;;;;;;;3.90;2.80;;;20.90;55.20;;;;;;8428259;28;20035;-43
2023/05/28 08:41:37;;;;;;;3.58;2.60;;;20.90;55.30;;;;;;8428122;28;20165;-43
2023/05/28 08:45:38;;;;;;;3.45;3.10;;;20.90;55.30;;;;;;8428100;28;20035;-42
2023/05/28 08:49:45;;;;;;;3.20;2.50;;;20.90;55.30;;;;;;8427709;28;20541;-43
2023/05/28 08:53:49;;;;;;;3.85;2.78;;;20.90;55.30;;;;;;8411028;28;20486;-42
2023/05/28 08:57:51;;;;;;;3.90;2.78;;;20.90;55.50;;;;;;8393988;28;20082;-43
2023/05/28 09:01:52;;;;;;;4.03;2.70;;;20.80;55.50;;;;;;8393747;28;20437;-43
2023/05/28 09:05:52;;;;;;;3.40;2.80;;;20.80;55.70;;;;;;8416056;28;20052;-44
2023/05/28 09:09:55;;;;;;;3.47;2.90;;;20.80;55.80;;;;;;8427408;28;20113;-44
2023/05/28 09:13:56;;;;;;;3.25;2.80;;;20.80;55.90;;;;;;8427110;28;20016;-44
2023/05/28 09:17:59;;;;;;;2.92;2.63;;;20.70;55.80;;;;;;8427019;28;20092;-43
2023/05/28 09:22:02;;;;;;;4.65;3.10;;;20.70;55.90;;;;;;8427477;28;20039;-44
2023/05/28 09:26:03;;;;;;;3.33;2.80;;;20.70;55.90;;;;;;8426689;28;20036;-43
2023/05/28 09:30:08;;;;;;;3.38;2.33;;;20.70;55.90;;;;;;8426562;28;20067;-43
2023/05/28 09:34:08;;;;;;;3.00;2.45;;;20.70;56.00;;;;;;8452842;28;20401;-43
2023/05/28 09:38:12;;;;;;;3.58;2.88;;;20.70;55.90;;;;;;8459227;28;20139;-43
2023/05/28 09:42:13;;;;;;;4.97;2.70;;;20.70;55.90;;;;;;8460502;28;20085;-43
2023/05/28 09:46:13;;;;;;;4.43;3.10;;;20.70;55.80;;;;;;8460065;28;20524;-43
2023/05/28 09:50:14;;;;;;;4.00;2.50;;;20.70;55.80;;;;;;8460023;28;20054;-43
2023/05/28 09:54:15;;;;;;;3.13;2.50;;;20.70;55.80;;;;;;8439260;28;20036;-43
2023/05/28 09:58:17;;;;;;;3.38;2.70;;;20.70;55.90;;;;;;8426399;28;20039;-44
2023/05/28 10:02:40;;;;;;;3.97;2.40;;;20.70;55.90;;;;;;8426209;28;20028;-43
2023/05/28 10:06:43;;;;;;;3.40;2.72;;;20.70;55.90;;;;;;8426034;28;20056;-43
2023/05/28 10:10:47;;;;;;;3.17;2.65;;;20.70;55.90;;;;;;8425928;28;20030;-43
2023/05/28 10:14:49;;;;;;;3.70;2.65;;;20.70;55.90;;;;;;8426535;28;20055;-43
2023/05/28 10:18:51;;;;;;;2.90;2.60;;;20.80;55.90;;;;;;8426091;28;20115;-43
2023/05/28 10:22:52;;;;;;;3.15;2.45;;;20.70;55.70;;;;;;8425953;28;20036;-43
2023/05/28 10:26:53;;;;;;;2.92;2.45;;;20.70;55.80;;;;;;8425937;28;20035;-43
2023/05/28 10:31:08;;;;;;;3.35;2.20;;;20.80;55.80;;;;;;8425583;28;20539;-43
2023/05/28 10:35:12;;;;;;;2.58;2.30;;;20.70;55.90;;;;;;8425737;28;20541;-43
2023/05/28 10:39:14;;;;;;;3.17;2.50;;;20.70;55.90;;;;;;8425614;28;20089;-43
2023/05/28 10:43:41;;;;;;;3.67;2.65;;;20.70;56.00;;;;;;8425393;28;20028;-43
2023/05/28 10:47:52;;;;;;;2.80;2.50;;;20.70;56.00;;;;;;8425635;28;20092;-43
2023/05/28 10:52:02;;;;;;;;;;;20.70;56.00;;;;;;8431182;28;20063;-42
2023/05/28 10:56:03;;;;;;;2.70;2.20;;;20.70;55.90;;;;;;8431440;28;19908;-43
2023/05/28 11:00:09;;;;;;;3.15;2.63;;;20.70;55.90;;;;;;8431538;28;20028;-43
2023/05/28 11:04:10;;;;;;;3.00;2.70;;;20.70;55.90;;;;;;8430852;28;20059;-43
2023/05/28 11:08:11;;;;;;;3.03;2.43;;;20.70;56.00;;;;;;8431317;28;20413;-43
2023/05/28 11:12:12;;;;;;;3.63;2.78;;;20.70;55.90;;;;;;8431427;28;20301;-43
2023/05/28 11:16:15;;;;;;;2.95;2.28;;;20.70;55.90;;;;;;8431111;28;20035;-42
2023/05/28 11:20:21;;;;;;;3.50;2.60;;;20.80;55.90;;;;;;8435510;28;20550;-44
2023/05/28 11:24:21;;;;;;;9.70;3.47;;;20.80;56.50;;;;;;8442697;28;20036;-45
2023/05/28 11:28:22;;;;;;;7.00;3.60;;;20.80;56.40;;;;;;8430408;28;20036;-45
2023/05/28 11:32:27;;;;;;;4.05;3.58;;;20.90;57.30;;;;;;8441721;28;20026;-44
2023/05/28 11:36:29;;;;;;;8.18;4.65;;;20.90;56.70;;;;;;8463901;28;20380;-45
2023/05/28 11:40:34;;;;;;;8.70;3.90;;;21.00;55.40;;;;;;8462273;28;20032;-44
2023/05/28 11:44:35;;;;;;;6.80;4.35;;;21.00;55.80;;;;;;8463878;28;20040;-44
2023/05/28 11:48:38;;;;;;;9.43;4.75;;;21.00;56.20;;;;;;8463507;28;20099;-45
2023/05/28 11:52:38;;;;;;;8.00;4.28;;;21.00;52.70;;;;;;8455969;28;20093;-45
2023/05/28 11:56:39;;;;;;;9.50;4.80;;;21.10;54.40;;;;;;8411451;28;20028;-44
2023/05/28 12:00:40;;;;;;;8.43;4.55;;;21.10;54.70;;;;;;8428312;28;20032;-44
2023/05/28 12:05:00;;;;;;;7.63;4.78;;;21.10;54.90;;;;;;8429048;28;20051;-44
2023/05/28 12:09:05;;;;;;;9.82;5.25;;;21.10;54.90;;;;;;8429098;28;20085;-44
2023/05/28 12:13:06;;;;;;;10.15;4.57;;;21.20;54.40;;;;;;8429290;28;20532;-44
2023/05/28 12:17:10;;;;;;;9.60;5.03;;;21.20;54.10;;;;;;8428668;28;20480;-44
2023/05/28 12:21:12;;;;;;;10.52;4.93;;;21.30;53.90;;;;;;8428053;28;20101;-43
2023/05/28 12:25:13;;;;;;;13.23;5.30;;;21.20;52.70;;;;;;8428255;28;20060;-44
2023/05/28 12:29:14;;;;;;;10.77;5.13;;;21.30;53.00;;;;;;8428159;28;20039;-44
2023/05/28 12:33:14;;;;;;;11.48;4.75;;;21.30;51.90;;;;;;8446581;28;20027;-44
2023/05/28 12:37:15;;;;;;;15.20;5.57;;;21.30;51.20;;;;;;8461939;28;20019;-43
2023/05/28 12:41:16;;;;;;;10.65;4.93;;;21.40;50.60;;;;;;8461759;28;20080;-43
2023/05/28 12:45:17;;;;;;;10.63;5.25;;;21.50;49.00;;;;;;8461579;28;20023;-44
2023/05/28 12:49:17;;;;;;;18.25;5.90;;;21.60;48.70;;;;;;8461608;28;20026;-45
2023/05/28 12:53:18;;;;;;;9.05;5.35;;;21.50;50.40;;;;;;8430236;28;20027;-47
2023/05/28 12:57:18;;;;;;;9.90;5.15;;;21.60;50.50;;;;;;8423121;28;20027;-44
2023/05/28 13:01:19;;;;;;;7.65;4.82;;;21.60;51.10;;;;;;8462191;28;20155;-44
2023/05/28 13:05:20;;;;;;;10.98;5.20;;;21.60;50.20;;;;;;8460922;28;20093;-45
2023/05/28 13:09:20;;;;;;;13.18;4.78;;;21.70;50.60;;;;;;8460737;28;20336;-44
2023/05/28 13:13:21;;;;;;;11.85;5.95;;;21.70;49.80;;;;;;8460454;28;20032;-45
2023/05/28 13:17:22;;;;;;;9.80;5.28;;;21.80;49.00;;;;;;8460958;28;20439;-46
2023/05/28 13:21:22;;;;;;;11.07;4.78;;;21.90;48.60;;;;;;8446660;28;20499;-42
2023/05/28 13:25:23;;;;;;;9.00;4.75;;;22.00;46.80;;;;;;8431704;28;20039;-42
2023/05/28 13:29:24;;;;;;;9.20;4.75;;;22.00;46.90;;;;;;8459860;28;20122;-43
2023/05/28 13:33:25;;;;;;;11.88;4.95;;;22.00;46.30;;;;;;8460326;28;20020;-42
2023/05/28 13:37:26;;;;;;;16.52;6.05;;;22.10;46.70;;;;;;8460149;28;20027;-42
2023/05/28 13:41:26;;;;;;;20.52;4.88;;;22.00;47.80;;;;;;8460122;28;20106;-43
2023/05/28 13:45:28;;;;;;;12.07;5.63;;;22.00;47.00;;;;;;8460121;28;20054;-43
2023/05/28 13:49:29;;;;;;;12.40;5.13;;;22.10;46.60;;;;;;8459817;28;20023;-44
2023/05/28 13:53:34;;;;;;;22.02;6.10;;;22.00;46.30;;;;;;8445690;28;20031;-43
2023/05/28 13:57:34;;;;;;;11.18;5.30;;;22.10;46.00;;;;;;8425960;28;20032;-43
2023/05/28 14:01:36;;;;;;;12.65;6.03;;;22.20;46.50;;;;;;8426140;28;20032;-43
2023/05/28 14:05:36;;;;;;;12.95;4.88;;;22.30;46.70;;;;;;8425854;28;20167;-43
2023/05/28 14:09:37;;;;;;;11.48;5.40;;;22.30;47.00;;;;;;8407924;28;20086;-42
2023/05/28 14:13:38;;;;;;;13.68;5.38;;;22.30;46.10;;;;;;8426003;28;20389;-43
2023/05/28 14:17:38;;;;;;;8.93;5.22;;;22.30;45.80;;;;;;8426397;28;20535;-44
2023/05/28 14:21:41;;;;;;;12.75;5.30;;;22.20;45.80;;;;;;8425996;28;20020;-44
2023/05/28 14:25:42;;;;;;;13.18;5.90;;;22.30;45.90;;;;;;8429198;28;20034;-44
2023/05/28 14:29:42;;;;;;;9.43;5.07;;;22.20;45.90;;;;;;8432251;28;20040;-43
2023/05/28 14:33:43;;;;;;;11.23;5.47;;;22.30;45.90;;;;;;8454749;28;20027;-45
2023/05/28 14:37:45;;;;;;;12.85;5.38;;;22.20;45.70;;;;;;8465822;28;20503;-45
2023/05/28 14:41:46;;;;;;;8.65;5.05;;;22.00;45.90;;;;;;8465248;28;20434;-43
2023/05/28 14:45:46;;;;;;;11.43;5.05;;;21.90;47.20;;;;;;8475401;27;20035;-42
2023/05/28 14:49:47;;;;;;;11.05;5.47;;;22.10;45.40;;;;;;8477723;27;20408;-44
2023/05/28 14:53:47;;;;;;;13.55;5.10;;;22.30;44.40;;;;;;8476385;27;20510;-44
2023/05/28 14:57:48;;;;;;;7.80;5.03;;;22.10;45.90;;;;;;8477660;27;20027;-45
2023/05/28 15:01:49;;;;;;;8.85;5.13;;;21.90;46.30;;;;;;8476335;27;20040;-45
2023/05/28 15:05:49;;;;;;;8.77;5.03;;;21.80;46.70;;;;;;8477079;27;20454;-43
2023/05/28 15:09:50;;;;;;;8.82;5.28;;;21.70;47.10;;;;;;8476419;27;20485;-42
2023/05/28 15:13:51;;;;;;;10.43;5.13;;;21.70;47.60;;;;;;8476818;27;20073;-42
2023/05/28 15:17:54;;;;;;;;;;;21.60;48.00;;;;;;8477469;27;20390;-44
2023/05/28 15:21:54;;;;;;;8.23;4.82;;;21.60;48.30;;;;;;8475411;27;19907;-44
2023/05/28 15:25:55;;;;;;;8.43;4.38;;;21.60;48.40;;;;;;8475629;27;20091;-45
2023/05/28 15:29:56;;;;;;;7.50;4.40;;;21.60;48.20;;;;;;8474479;27;20077;-45
2023/05/28 15:33:57;;;;;;;9.43;5.03;;;21.60;48.70;;;;;;8475861;27;20049;-45
2023/05/28 15:37:58;;;;;;;10.23;4.97;;;21.60;49.10;;;;;;8475779;27;20066;-44
2023/05/28 15:42:02;;;;;;;9.35;4.45;;;21.60;48.00;;;;;;8476609;27;20027;-44
2023/05/28 15:46:02;;;;;;;8.43;4.82;;;21.60;49.00;;;;;;8475887;27;20040;-44
2023/05/28 15:50:03;;;;;;;10.07;4.90;;;21.60;48.90;;;;;;8475456;27;20035;-45
2023/05/28 15:54:04;;;;;;;7.82;4.40;;;21.70;48.30;;;;;;8474574;27;20076;-44
2023/05/28 15:58:07;;;;;;;8.07;4.50;;;21.70;48.30;;;;;;8476273;27;20391;-43
2023/05/28 16:02:08;;;;;;;9.90;4.78;;;21.70;48.00;;;;;;8474161;27;20031;-44
2023/05/28 16:06:10;;;;;;;10.40;4.28;;;21.60;48.20;;;;;;8474375;27;20492;-44
2023/05/28 16:10:11;;;;;;;8.07;4.30;;;21.60;48.30;;;;;;8474025;27;20043;-43
2023/05/28 16:14:15;;;;;;;12.20;5.25;;;21.60;48.60;;;;;;8474673;27;20506;-45
2023/05/28 16:18:18;;;;;;;10.55;4.35;;;21.60;48.70;;;;;;8473899;27;20070;-43
2023/05/28 16:22:20;;;;;;;8.73;4.78;;;21.60;48.60;;;;;;8475184;27;20110;-43
2023/05/28 16:26:21;;;;;;;;;;;21.60;48.80;;;;;;8456471;27;20039;-44
2023/05/28 16:30:23;;;;;;;12.18;4.65;;;21.50;48.80;;;;;;8474437;27;19914;-44
2023/05/28 16:34:23;;;;;;;15.75;5.47;;;21.50;48.90;;;;;;8474005;27;20656;-45
2023/05/28 16:38:25;;;;;;;9.23;4.13;;;21.50;49.20;;;;;;8474397;27;20388;-42
2023/05/28 16:42:26;;;;;;;11.23;5.00;;;21.60;49.30;;;;;;8474288;27;21068;-46
2023/05/28 16:46:27;;;;;;;9.98;4.65;;;21.50;48.80;;;;;;8472623;27;20030;-46
2023/05/28 16:50:27;;;;;;;;;;;21.60;48.70;;;;;;8474308;27;20038;-46
2023/05/28 16:54:29;;;;;;;11.97;4.70;;;21.50;49.30;;;;;;8471756;27;19971;-45
2023/05/28 16:58:30;;;;;;;7.65;4.43;;;21.50;49.70;;;;;;8455378;27;20476;-44
2023/05/28 17:02:32;;;;;;;9.95;4.80;;;21.60;49.70;;;;;;8472377;27;20476;-45
2023/05/28 17:06:33;;;;;;;8.70;4.25;;;21.50;49.50;;;;;;8472948;27;20393;-44
2023/05/28 17:10:33;;;;;;;9.48;4.13;;;21.50;49.80;;;;;;8473496;27;20031;-44
2023/05/28 17:14:34;;;;;;;7.88;4.25;;;21.40;50.20;;;;;;8454797;27;20388;-44
2023/05/28 17:18:35;;;;;;;7.18;4.15;;;21.40;50.10;;;;;;8454907;27;20023;-44
2023/05/28 17:22:38;;;;;;;14.23;4.22;;;21.40;49.90;;;;;;8471572;27;20038;-44
2023/05/28 17:26:39;;;;;;;7.45;4.00;;;21.40;50.00;;;;;;8471812;27;20027;-44
2023/05/28 17:30:39;;;;;;;9.52;4.30;;;21.40;50.10;;;;;;8473032;27;20560;-44
2023/05/28 17:34:43;;;;;;;6.55;4.47;;;21.40;49.90;;;;;;8472188;27;20039;-44
2023/05/28 17:38:44;;;;;;;9.43;4.85;;;21.40;49.90;;;;;;8472347;27;20035;-45
2023/05/28 17:42:44;;;;;;;5.70;4.10;;;21.40;49.90;;;;;;8473018;27;20027;-44
2023/05/28 17:46:45;;;;;;;13.20;5.17;;;21.40;49.90;;;;;;8470541;27;20285;-45
2023/05/28 17:50:46;;;;;;;7.60;3.77;;;21.40;50.00;;;;;;8460007;28;20289;-44
2023/05/28 17:54:46;;;;;;;5.25;3.42;;;21.40;50.00;;;;;;8435053;28;20361;-44
2023/05/28 17:58:48;;;;;;;9.30;4.05;;;21.40;49.90;;;;;;8458677;28;20032;-44
2023/05/28 18:02:51;;;;;;;7.68;4.35;;;21.40;49.90;;;;;;8466592;28;20038;-45
2023/05/28 18:06:52;;;;;;;7.00;4.00;;;21.40;50.00;;;;;;8466771;28;20097;-43
2023/05/28 18:10:56;;;;;;;5.97;3.75;;;21.40;50.30;;;;;;8466613;28;20128;-44
2023/05/28 18:14:57;;;;;;;5.68;3.30;;;21.40;50.50;;;;;;8466198;28;20077;-44
2023/05/28 18:18:57;;;;;;;10.55;3.38;;;21.40;50.60;;;;;;8466569;28;20036;-44
2023/05/28 18:22:58;;;;;;;7.65;3.60;;;21.30;50.70;;;;;;8439190;28;20077;-44
2023/05/28 18:26:58;;;;;;;51.45;15.30;;;21.40;50.70;;;;;;8432206;28;20121;-44
2023/05/28 18:30:59;;;;;;;27.52;9.02;;;21.30;52.30;;;;;;8432321;28;20056;-43
2023/05/28 18:35:00;;;;;;;17.67;6.85;;;21.30;51.90;;;;;;8460122;28;20027;-46
2023/05/28 18:39:01;;;;;;;19.40;5.97;;;21.40;52.30;;;;;;8434082;28;20032;-48
2023/05/28 18:43:01;;;;;;;12.77;6.47;;;21.40;52.10;;;;;;8434337;28;20028;-46
2023/05/28 18:47:02;;;;;;;15.02;5.78;;;21.40;52.10;;;;;;8434222;28;20159;-46
2023/05/28 18:51:03;;;;;;;16.27;6.07;;;21.50;52.10;;;;;;8433786;28;20651;-49
2023/05/28 18:55:04;;;;;;;16.08;6.97;;;21.50;52.00;;;;;;8433949;28;20031;-49
2023/05/28 18:59:05;;;;;;;13.95;5.47;;;21.50;51.90;;;;;;8433674;28;20024;-49
2023/05/28 19:03:06;;;;;;;13.70;4.53;;;21.50;52.00;;;;;;8433541;28;20036;-47
2023/05/28 19:07:06;;;;;;;12.95;5.32;;;21.50;52.00;;;;;;8414874;28;20059;-48
2023/05/28 19:11:10;;;;;;;13.32;4.75;;;21.50;51.80;;;;;;8432833;28;20035;-47
2023/05/28 19:15:12;;;;;;;9.20;4.50;;;21.60;51.80;;;;;;8432916;28;20473;-47
2023/05/28 19:19:13;;;;;;;9.55;4.70;;;21.50;51.60;;;;;;8433105;28;20031;-48
2023/05/28 19:23:13;;;;;;;11.27;4.97;;;21.50;51.70;;;;;;8433377;28;20071;-47
2023/05/28 19:27:14;;;;;;;9.45;3.97;;;21.50;51.50;;;;;;8432673;28;20458;-47
2023/05/28 19:31:15;;;;;;;;;;;21.50;51.40;;;;;;8434538;28;20027;-46
2023/05/28 19:35:15;;;;;;;10.47;4.27;;;21.50;51.40;;;;;;8466656;28;19903;-47
2023/05/28 19:39:16;;;;;;;7.88;4.43;;;21.50;51.30;;;;;;8466585;28;20038;-46
2023/05/28 19:43:17;;;;;;;11.38;5.00;;;21.50;51.30;;;;;;8465897;28;20085;-45
2023/05/28 19:47:18;;;;;;;6.93;3.88;;;21.50;51.10;;;;;;8465719;28;20103;-46
2023/05/28 19:51:19;;;;;;;7.38;4.03;;;21.50;50.90;;;;;;8447449;28;20027;-46
2023/05/28 19:55:19;;;;;;;11.50;4.25;;;21.50;51.00;;;;;;8435544;28;20032;-48
2023/05/28 19:59:21;;;;;;;9.57;4.32;;;21.50;50.80;;;;;;8431864;28;20043;-46
2023/05/28 20:03:22;;;;;;;8.48;3.95;;;21.50;50.40;;;;;;8431188;28;20032;-47
2023/05/28 20:07:23;;;;;;;8.05;4.55;;;21.50;50.80;;;;;;8437975;28;20065;-46
2023/05/28 20:11:23;;;;;;;9.10;4.10;;;21.60;50.70;;;;;;8444033;28;20047;-47
2023/05/28 20:15:24;;;;;;;6.25;4.13;;;21.50;50.60;;;;;;8460807;28;20089;-47
2023/05/28 20:19:44;;;;;;;5.82;3.63;;;21.60;49.80;;;;;;8454824;28;20523;-47
2023/05/28 20:23:45;;;;;;;8.65;3.88;;;21.50;50.60;;;;;;8412103;28;20074;-46
2023/05/28 20:27:45;;;;;;;10.97;4.63;;;21.50;50.20;;;;;;8430991;28;20044;-47
2023/05/28 20:31:46;;;;;;;9.10;4.15;;;21.50;50.70;;;;;;8436565;28;20281;-46
2023/05/28 20:35:48;;;;;;;7.07;3.95;;;21.50;50.40;;;;;;8439922;27;20063;-46
2023/05/28 20:39:49;;;;;;;7.68;4.20;;;21.50;50.30;;;;;;8439018;27;20020;-46
2023/05/28 20:43:50;;;;;;;9.60;3.90;;;21.60;50.50;;;;;;8446015;28;20056;-45
2023/05/28 20:47:51;;;;;;;11.48;4.22;;;21.60;50.50;;;;;;8430412;28;20085;-46
2023/05/28 20:51:52;;;;;;;9.80;4.38;;;21.50;50.20;;;;;;8412104;28;20028;-48
2023/05/28 20:55:52;;;;;;;7.93;3.70;;;21.60;50.60;;;;;;8430207;28;20104;-45